McKinleyville, CA

4:44 PM PST on November 28, 2014 (GMT -0800)
MAP HUMBOLDT (P058) CA PSD | Change Station
CLOSE
Current Station
Personal Weather Station
Location: McKinleyville, CA
Elevation: 68 ft
Nearby Weather Stations

Elev 68 ft 40.88 °N, 124.07 °W | Updated 2 hours ago

Mostly Cloudy
Mostly Cloudy
64 °F
Feels Like 64 °F
N
4
Wind Variable Wind from SSE
Gusts 0.0 mph

Today
High -- | Low -- °F
--% Chance of Precip.
Yesterday
High -- | Low -- °F
Precip. -- in
7:18 AM 4:50 PM
Waxing Crescent, 45% visible
Pressure 29.76 in
Visibility 2.0 miles
Clouds Scattered Clouds 2300 ft
Mostly Cloudy 3700 ft
Overcast 5000 ft
Dew Point 53 °F
Humidity 67%
Rainfall -999.00 in
Snow Depth Not available.
UV 0 out of 12
Pollen .50 out of 12
Air Quality Not available.
Flu Activity Not available.
SPECI KACV 290038Z AUTO 19004KT 2SM -RA BR SCT023 BKN037 OVC050 14/13 A2976 RMK AO2 RAE2355B12 P0010 T01390133

More Conditions Fewer Conditions

Pressure 29.76 in
Visibility 2.0 miles
Clouds Scattered Clouds 2300 ft
Mostly Cloudy 3700 ft
Overcast 5000 ft
Dew Point 53 °F
Humidity 67%
Rainfall -999.00 in
Snow Depth Not available.
UV 0 out of 12
Pollen .50 out of 12
Air Quality Not available.
Flu Activity Not available.
SPECI KACV 290038Z AUTO 19004KT 2SM -RA BR SCT023 BKN037 OVC050 14/13 A2976 RMK AO2 RAE2355B12 P0010 T01390133

More Conditions Fewer Conditions

10-Day Weather Forecast

Almanac

Astronomy

Nov. 28, 2014 Rise Set
Actual Time
Civil Twilight
Nautical Twilight
Astronomical Twilight
Moon
Length of Visible Light
Length of Day
Tomorrow will be .
, % of the Moon is Illuminated

Today's Extremes

State Highs State Lows

Community

WunderPhotos

Upload Photos

1,774,347 photos uploaded!

WunderBlogs® & News

Nearby

Air Quality

  Air Quality AQ Index Pollutant
Not available.

Snow Depth

Station Depth Elevation

Earthquake Activity

City Distance Mag. Time & Date
Minimum magnitude displayed is 2.5.

Coastal Water Temperatures

Place Temperature

Nearby Weather Stations